createdAt,value
2018-09-25T11:55:13.904Z,0.80
2018-09-25T11:56:12.817Z,0.70
2018-09-25T11:57:12.640Z,0.80
2018-09-25T11:58:13.060Z,0.70
2018-09-25T11:59:12.887Z,0.80
2018-09-25T12:00:12.741Z,0.50
2018-09-25T12:01:12.500Z,0.60
2018-09-25T12:02:12.303Z,0.60
2018-09-25T12:03:12.222Z,0.30
2018-09-25T12:04:12.125Z,0.80
2018-09-25T12:05:11.903Z,0.60
2018-09-25T12:06:11.927Z,0.50
2018-09-25T12:07:11.700Z,0.50
2018-09-25T12:08:11.948Z,0.50
2018-09-25T12:09:11.441Z,0.50
2018-09-25T12:10:11.666Z,0.60
2018-09-25T12:11:11.567Z,0.50
2018-09-25T12:12:11.221Z,0.50
2018-09-25T12:13:11.098Z,0.40
2018-09-25T12:14:11.246Z,0.50
2018-09-25T12:15:10.858Z,0.60
2018-09-25T12:16:10.903Z,0.40
2018-09-25T12:17:11.082Z,0.50
2018-09-25T12:18:11.505Z,0.60
2018-09-25T12:42:31.543Z,0.60
2018-09-25T12:43:32.248Z,0.60
2018-09-25T12:44:31.303Z,0.70
2018-09-25T12:45:31.648Z,0.50
2018-09-25T12:46:31.664Z,0.50
2018-09-25T12:47:31.325Z,0.60
2018-09-25T12:48:31.278Z,0.50
2018-09-25T12:49:31.421Z,0.70
2018-09-25T12:50:30.997Z,0.80
2018-09-25T12:51:31.906Z,0.50
2018-09-25T12:52:30.969Z,0.50
2018-09-25T12:53:31.425Z,0.50
2018-09-25T12:54:34.979Z,0.70
2018-09-25T12:55:31.423Z,0.50
2018-09-25T12:56:30.201Z,0.60
2018-09-25T12:57:29.986Z,0.40
2018-09-25T12:58:30.485Z,0.50
2018-09-25T12:59:31.100Z,0.80
2018-09-25T13:00:29.824Z,0.70
2018-09-25T13:01:30.460Z,0.60
2018-09-25T13:02:30.421Z,0.30
2018-09-25T13:03:29.802Z,0.70
2018-09-25T13:04:30.586Z,1.50
2018-09-25T13:05:28.819Z,0.60
2018-09-25T13:06:28.849Z,0.30
2018-09-25T13:07:45.194Z,0.50
2018-09-25T13:08:40.142Z,0.40
2018-09-25T13:09:30.393Z,0.30
2018-09-25T13:10:28.361Z,0.40
2018-09-25T13:11:29.199Z,0.30
2018-09-25T13:12:28.502Z,3.30
2018-09-25T13:13:28.038Z,4.70
2018-09-25T13:14:28.221Z,3.10
2018-09-25T13:15:27.964Z,4.40
2018-09-25T13:16:29.727Z,5.60
2018-09-25T13:17:28.501Z,2.90
2018-09-25T13:18:28.100Z,4.10
2018-09-25T13:19:27.886Z,3.30
2018-09-25T13:20:27.283Z,4.80
2018-09-25T13:21:27.779Z,7.30
2018-09-25T13:22:27.903Z,3.70
2018-09-25T13:23:27.402Z,5.50
2018-09-25T13:24:27.264Z,3.90
2018-09-25T13:25:26.544Z,3.20
2018-09-25T13:26:27.257Z,5.50
2018-09-25T13:27:26.960Z,4.10
2018-09-25T13:28:26.799Z,5.70
2018-09-25T13:29:26.759Z,4.00
2018-09-25T13:30:26.059Z,2.50
2018-09-25T13:31:25.724Z,4.50
2018-09-25T13:32:26.642Z,3.90
2018-09-25T13:33:25.526Z,4.10
2018-09-25T13:34:26.459Z,2.50
2018-09-25T13:35:25.640Z,2.60
2018-09-25T13:36:26.083Z,1.70
2018-09-25T13:37:25.338Z,2.10
2018-09-25T13:38:26.704Z,4.50
2018-09-25T13:39:25.001Z,7.10
2018-09-25T13:40:25.803Z,4.20
2018-09-25T13:41:24.702Z,4.10
2018-09-25T13:42:25.303Z,4.10
2018-09-25T13:43:24.820Z,3.80
2018-09-25T13:44:25.124Z,5.50
2018-09-25T13:45:24.327Z,6.20
2018-09-25T13:46:23.879Z,3.90
2018-09-25T13:47:23.690Z,4.00
2018-09-25T13:48:23.824Z,3.70
2018-09-25T13:49:23.626Z,4.20
2018-09-25T13:50:23.641Z,4.20
2018-09-25T13:51:23.836Z,4.60
2018-09-25T13:52:23.244Z,3.80
2018-09-25T13:53:22.799Z,3.20
2018-09-25T13:54:23.448Z,7.40
2018-09-25T13:55:23.343Z,5.20
2018-09-25T13:56:23.046Z,4.50
2018-09-25T13:57:23.144Z,5.40
2018-09-25T13:58:22.542Z,4.80
2018-09-25T13:59:22.309Z,3.90
2018-09-25T14:00:22.485Z,4.00
2018-09-25T14:01:22.138Z,3.60
2018-09-25T14:02:22.433Z,4.20
2018-09-25T14:03:21.510Z,4.40
2018-09-25T14:04:40.008Z,5.70
2018-09-25T14:05:21.247Z,0.60
2018-09-25T14:06:21.360Z,5.70
2018-09-25T14:07:20.881Z,4.30
2018-09-25T14:08:21.533Z,5.00
2018-09-25T14:09:21.632Z,3.70
2018-09-25T14:10:23.657Z,8.10
2018-09-25T14:11:20.035Z,9.60
2018-09-25T14:12:19.815Z,0.60
2018-09-25T14:13:20.286Z,1.10
2018-09-25T14:14:19.534Z,1.00
2018-09-25T14:15:19.916Z,0.60
2018-09-25T14:16:20.142Z,0.70
2018-09-25T14:17:19.093Z,0.60
2018-09-25T14:18:19.634Z,0.60
2018-09-25T14:19:18.935Z,0.90
2018-09-25T14:20:18.755Z,0.80
2018-09-25T14:21:20.113Z,0.60
2018-09-25T14:22:18.616Z,0.70
2018-09-25T14:23:18.198Z,3.50
2018-09-25T14:24:18.100Z,1.60
2018-09-25T14:25:18.654Z,0.70
2018-09-25T14:26:17.756Z,0.60
2018-09-25T14:27:17.631Z,0.70
2018-09-25T14:28:18.378Z,0.70
2018-09-25T14:29:17.400Z,0.50
2018-09-25T14:30:17.564Z,0.70
2018-09-25T14:31:17.183Z,1.10
2018-09-25T14:32:17.032Z,1.00
2018-09-25T14:33:16.794Z,0.90
2018-09-25T14:34:16.741Z,1.00
2018-09-25T14:35:16.482Z,0.90
2018-09-25T14:36:16.570Z,1.10
2018-09-25T14:37:16.198Z,1.40
2018-09-25T14:38:16.138Z,0.80
2018-09-25T14:39:15.921Z,1.00
2018-09-25T14:40:15.809Z,0.70
2018-09-25T14:41:15.704Z,0.70
2018-09-25T14:42:15.494Z,1.00
2018-09-25T14:43:15.362Z,0.60
2018-09-25T14:44:15.296Z,0.90
2018-09-25T14:45:15.156Z,0.90
2018-09-25T14:46:15.714Z,0.70
2018-09-25T14:47:14.907Z,0.70
2018-09-25T14:48:19.169Z,0.70
